sensor_id;sensor_type;location;lat;lon;timestamp;P1;durP1;ratioP1;P2;durP2;ratioP2
15412;SDS011;7805;49.554;7.632;2024-03-06T00:01:42;5.40;;;4.17;;
15412;SDS011;7805;49.554;7.632;2024-03-06T00:04:07;5.10;;;3.43;;
15412;SDS011;7805;49.554;7.632;2024-03-06T00:06:33;6.77;;;3.70;;
15412;SDS011;7805;49.554;7.632;2024-03-06T00:08:59;7.17;;;4.47;;
15412;SDS011;7805;49.554;7.632;2024-03-06T00:11:25;7.23;;;4.53;;
15412;SDS011;7805;49.554;7.632;2024-03-06T00:13:50;6.67;;;4.80;;
15412;SDS011;7805;49.554;7.632;2024-03-06T00:16:16;5.30;;;4.57;;
15412;SDS011;7805;49.554;7.632;2024-03-06T00:18:42;7.13;;;5.70;;
15412;SDS011;7805;49.554;7.632;2024-03-06T00:21:07;5.77;;;4.50;;
15412;SDS011;7805;49.554;7.632;2024-03-06T00:23:34;4.90;;;3.90;;
15412;SDS011;7805;49.554;7.632;2024-03-06T00:26:00;8.83;;;4.73;;
15412;SDS011;7805;49.554;7.632;2024-03-06T00:28:27;7.90;;;4.40;;
15412;SDS011;7805;49.554;7.632;2024-03-06T00:30:53;8.27;;;4.60;;
15412;SDS011;7805;49.554;7.632;2024-03-06T00:33:18;8.40;;;5.13;;
15412;SDS011;7805;49.554;7.632;2024-03-06T00:35:44;6.03;;;5.17;;
15412;SDS011;7805;49.554;7.632;2024-03-06T00:38:09;9.73;;;5.10;;
15412;SDS011;7805;49.554;7.632;2024-03-06T00:40:35;8.03;;;5.23;;
15412;SDS011;7805;49.554;7.632;2024-03-06T00:43:00;6.30;;;5.00;;
15412;SDS011;7805;49.554;7.632;2024-03-06T00:45:26;8.30;;;5.23;;
15412;SDS011;7805;49.554;7.632;2024-03-06T00:47:51;8.03;;;5.07;;
15412;SDS011;7805;49.554;7.632;2024-03-06T00:50:17;10.03;;;5.90;;
15412;SDS011;7805;49.554;7.632;2024-03-06T00:52:43;26.33;;;14.40;;
15412;SDS011;7805;49.554;7.632;2024-03-06T00:55:09;32.63;;;20.50;;
15412;SDS011;7805;49.554;7.632;2024-03-06T00:57:35;32.33;;;18.60;;
15412;SDS011;7805;49.554;7.632;2024-03-06T01:00:01;19.47;;;10.60;;
15412;SDS011;7805;49.554;7.632;2024-03-06T01:02:37;24.07;;;11.30;;
15412;SDS011;7805;49.554;7.632;2024-03-06T01:05:03;13.70;;;7.97;;
15412;SDS011;7805;49.554;7.632;2024-03-06T01:07:29;17.37;;;7.13;;
15412;SDS011;7805;49.554;7.632;2024-03-06T01:09:58;12.80;;;6.67;;
15412;SDS011;7805;49.554;7.632;2024-03-06T01:12:24;14.00;;;7.30;;
15412;SDS011;7805;49.554;7.632;2024-03-06T01:14:50;11.53;;;6.90;;
15412;SDS011;7805;49.554;7.632;2024-03-06T01:17:16;13.80;;;7.83;;
15412;SDS011;7805;49.554;7.632;2024-03-06T01:19:41;29.53;;;7.27;;
15412;SDS011;7805;49.554;7.632;2024-03-06T01:22:08;12.93;;;7.83;;
15412;SDS011;7805;49.554;7.632;2024-03-06T01:24:34;17.10;;;7.83;;
15412;SDS011;7805;49.554;7.632;2024-03-06T01:27:00;13.00;;;7.97;;
15412;SDS011;7805;49.554;7.632;2024-03-06T01:29:28;13.47;;;7.03;;
15412;SDS011;7805;49.554;7.632;2024-03-06T01:31:54;19.10;;;6.63;;
15412;SDS011;7805;49.554;7.632;2024-03-06T01:34:19;18.00;;;7.93;;
15412;SDS011;7805;49.554;7.632;2024-03-06T01:36:45;23.57;;;8.70;;
15412;SDS011;7805;49.554;7.632;2024-03-06T01:39:11;23.20;;;7.87;;
15412;SDS011;7805;49.554;7.632;2024-03-06T01:41:37;16.57;;;8.03;;
15412;SDS011;7805;49.554;7.632;2024-03-06T01:44:02;14.00;;;8.33;;
15412;SDS011;7805;49.554;7.632;2024-03-06T01:46:29;24.07;;;8.97;;
15412;SDS011;7805;49.554;7.632;2024-03-06T01:48:54;12.13;;;6.87;;
15412;SDS011;7805;49.554;7.632;2024-03-06T01:51:24;10.87;;;6.73;;
15412;SDS011;7805;49.554;7.632;2024-03-06T01:53:49;14.20;;;7.93;;
15412;SDS011;7805;49.554;7.632;2024-03-06T01:56:15;9.87;;;6.90;;
15412;SDS011;7805;49.554;7.632;2024-03-06T01:58:42;13.50;;;6.63;;
15412;SDS011;7805;49.554;7.632;2024-03-06T02:01:10;13.63;;;6.67;;
15412;SDS011;7805;49.554;7.632;2024-03-06T02:03:36;10.17;;;6.93;;
15412;SDS011;7805;49.554;7.632;2024-03-06T02:06:02;13.87;;;6.13;;
15412;SDS011;7805;49.554;7.632;2024-03-06T02:08:29;11.00;;;6.43;;
15412;SDS011;7805;49.554;7.632;2024-03-06T02:10:55;17.93;;;6.73;;
15412;SDS011;7805;49.554;7.632;2024-03-06T02:13:21;13.53;;;6.23;;
15412;SDS011;7805;49.554;7.632;2024-03-06T02:15:47;16.30;;;6.50;;
15412;SDS011;7805;49.554;7.632;2024-03-06T02:18:14;65.83;;;9.53;;
15412;SDS011;7805;49.554;7.632;2024-03-06T02:20:39;14.43;;;6.73;;
15412;SDS011;7805;49.554;7.632;2024-03-06T02:23:05;11.40;;;6.23;;
15412;SDS011;7805;49.554;7.632;2024-03-06T02:25:31;8.83;;;6.47;;
15412;SDS011;7805;49.554;7.632;2024-03-06T02:27:57;7.33;;;5.57;;
15412;SDS011;7805;49.554;7.632;2024-03-06T02:30:23;19.10;;;6.27;;
15412;SDS011;7805;49.554;7.632;2024-03-06T02:32:49;7.20;;;5.30;;
15412;SDS011;7805;49.554;7.632;2024-03-06T02:35:15;6.20;;;4.77;;
15412;SDS011;7805;49.554;7.632;2024-03-06T02:37:43;7.87;;;5.07;;
15412;SDS011;7805;49.554;7.632;2024-03-06T02:40:09;8.70;;;4.90;;
15412;SDS011;7805;49.554;7.632;2024-03-06T02:42:35;5.87;;;4.33;;
15412;SDS011;7805;49.554;7.632;2024-03-06T02:45:05;11.90;;;6.37;;
15412;SDS011;7805;49.554;7.632;2024-03-06T02:47:32;19.00;;;6.60;;
15412;SDS011;7805;49.554;7.632;2024-03-06T02:49:57;33.90;;;8.73;;
15412;SDS011;7805;49.554;7.632;2024-03-06T02:52:23;121.63;;;14.17;;
15412;SDS011;7805;49.554;7.632;2024-03-06T02:54:48;8.83;;;6.27;;
15412;SDS011;7805;49.554;7.632;2024-03-06T02:57:14;15.13;;;6.70;;
15412;SDS011;7805;49.554;7.632;2024-03-06T02:59:40;31.83;;;7.30;;
15412;SDS011;7805;49.554;7.632;2024-03-06T03:02:05;8.80;;;6.87;;
15412;SDS011;7805;49.554;7.632;2024-03-06T03:04:31;8.43;;;6.13;;
15412;SDS011;7805;49.554;7.632;2024-03-06T03:06:57;8.67;;;6.90;;
15412;SDS011;7805;49.554;7.632;2024-03-06T03:09:22;15.83;;;6.70;;
15412;SDS011;7805;49.554;7.632;2024-03-06T03:11:48;12.57;;;6.97;;
15412;SDS011;7805;49.554;7.632;2024-03-06T03:14:14;20.23;;;6.97;;
15412;SDS011;7805;49.554;7.632;2024-03-06T03:16:39;15.23;;;5.93;;
15412;SDS011;7805;49.554;7.632;2024-03-06T03:19:06;17.13;;;5.97;;
15412;SDS011;7805;49.554;7.632;2024-03-06T03:21:33;36.43;;;6.60;;
15412;SDS011;7805;49.554;7.632;2024-03-06T03:23:59;17.87;;;6.53;;
15412;SDS011;7805;49.554;7.632;2024-03-06T03:26:24;8.00;;;6.30;;
15412;SDS011;7805;49.554;7.632;2024-03-06T03:28:50;9.17;;;5.63;;
15412;SDS011;7805;49.554;7.632;2024-03-06T03:31:16;8.33;;;5.87;;
15412;SDS011;7805;49.554;7.632;2024-03-06T03:33:41;8.67;;;6.40;;
15412;SDS011;7805;49.554;7.632;2024-03-06T03:36:07;17.63;;;6.67;;
15412;SDS011;7805;49.554;7.632;2024-03-06T03:38:39;6.63;;;5.37;;
15412;SDS011;7805;49.554;7.632;2024-03-06T03:41:09;14.83;;;6.27;;
15412;SDS011;7805;49.554;7.632;2024-03-06T03:43:40;9.30;;;6.83;;
15412;SDS011;7805;49.554;7.632;2024-03-06T03:46:06;52.83;;;10.60;;
15412;SDS011;7805;49.554;7.632;2024-03-06T03:48:33;19.10;;;7.73;;
15412;SDS011;7805;49.554;7.632;2024-03-06T03:51:02;20.60;;;6.93;;
15412;SDS011;7805;49.554;7.632;2024-03-06T03:53:30;23.03;;;7.07;;
15412;SDS011;7805;49.554;7.632;2024-03-06T03:55:55;7.67;;;6.40;;
15412;SDS011;7805;49.554;7.632;2024-03-06T03:58:21;11.13;;;6.30;;
15412;SDS011;7805;49.554;7.632;2024-03-06T04:00:46;10.93;;;6.90;;
15412;SDS011;7805;49.554;7.632;2024-03-06T04:03:12;7.10;;;5.57;;
15412;SDS011;7805;49.554;7.632;2024-03-06T04:05:37;10.63;;;6.13;;
15412;SDS011;7805;49.554;7.632;2024-03-06T04:08:03;12.70;;;6.50;;
15412;SDS011;7805;49.554;7.632;2024-03-06T04:10:31;7.73;;;5.80;;
15412;SDS011;7805;49.554;7.632;2024-03-06T04:12:57;7.37;;;6.10;;
15412;SDS011;7805;49.554;7.632;2024-03-06T04:15:24;10.13;;;6.80;;
15412;SDS011;7805;49.554;7.632;2024-03-06T04:17:50;12.60;;;5.90;;
15412;SDS011;7805;49.554;7.632;2024-03-06T04:20:17;73.87;;;10.10;;
15412;SDS011;7805;49.554;7.632;2024-03-06T04:22:43;12.23;;;6.70;;
15412;SDS011;7805;49.554;7.632;2024-03-06T04:25:08;9.63;;;6.60;;
15412;SDS011;7805;49.554;7.632;2024-03-06T04:27:34;23.53;;;7.27;;
15412;SDS011;7805;49.554;7.632;2024-03-06T04:30:00;17.93;;;8.10;;
15412;SDS011;7805;49.554;7.632;2024-03-06T04:32:25;8.77;;;5.90;;
15412;SDS011;7805;49.554;7.632;2024-03-06T04:34:51;8.57;;;5.90;;
15412;SDS011;7805;49.554;7.632;2024-03-06T04:37:18;8.07;;;6.23;;
15412;SDS011;7805;49.554;7.632;2024-03-06T04:39:44;10.37;;;6.73;;
15412;SDS011;7805;49.554;7.632;2024-03-06T04:42:09;9.50;;;6.40;;
15412;SDS011;7805;49.554;7.632;2024-03-06T04:44:35;7.10;;;5.77;;
15412;SDS011;7805;49.554;7.632;2024-03-06T04:47:01;8.07;;;6.20;;
15412;SDS011;7805;49.554;7.632;2024-03-06T04:49:27;19.37;;;7.60;;
15412;SDS011;7805;49.554;7.632;2024-03-06T04:51:53;9.27;;;6.47;;
15412;SDS011;7805;49.554;7.632;2024-03-06T04:54:18;8.20;;;6.30;;
15412;SDS011;7805;49.554;7.632;2024-03-06T04:56:44;8.87;;;6.70;;
15412;SDS011;7805;49.554;7.632;2024-03-06T04:59:09;12.37;;;7.30;;
15412;SDS011;7805;49.554;7.632;2024-03-06T05:01:35;8.03;;;6.50;;
15412;SDS011;7805;49.554;7.632;2024-03-06T05:04:00;8.60;;;6.60;;
15412;SDS011;7805;49.554;7.632;2024-03-06T05:06:26;7.63;;;6.07;;
15412;SDS011;7805;49.554;7.632;2024-03-06T05:08:51;56.87;;;8.03;;
15412;SDS011;7805;49.554;7.632;2024-03-06T05:11:17;8.87;;;6.53;;
15412;SDS011;7805;49.554;7.632;2024-03-06T05:13:42;56.70;;;7.83;;
15412;SDS011;7805;49.554;7.632;2024-03-06T05:16:08;17.30;;;6.73;;
15412;SDS011;7805;49.554;7.632;2024-03-06T05:18:34;7.40;;;5.13;;
15412;SDS011;7805;49.554;7.632;2024-03-06T05:21:00;7.27;;;5.37;;
15412;SDS011;7805;49.554;7.632;2024-03-06T05:23:25;6.57;;;5.40;;
15412;SDS011;7805;49.554;7.632;2024-03-06T05:25:51;6.53;;;5.50;;
15412;SDS011;7805;49.554;7.632;2024-03-06T05:28:17;9.63;;;5.53;;
15412;SDS011;7805;49.554;7.632;2024-03-06T05:30:42;10.63;;;6.20;;
15412;SDS011;7805;49.554;7.632;2024-03-06T05:33:08;10.03;;;6.80;;
15412;SDS011;7805;49.554;7.632;2024-03-06T05:35:34;14.20;;;6.53;;
15412;SDS011;7805;49.554;7.632;2024-03-06T05:37:59;8.57;;;6.83;;
15412;SDS011;7805;49.554;7.632;2024-03-06T05:40:25;11.20;;;7.10;;
15412;SDS011;7805;49.554;7.632;2024-03-06T05:42:50;10.43;;;6.70;;
15412;SDS011;7805;49.554;7.632;2024-03-06T05:45:16;19.90;;;7.37;;
15412;SDS011;7805;49.554;7.632;2024-03-06T05:47:42;10.57;;;7.67;;
15412;SDS011;7805;49.554;7.632;2024-03-06T05:50:07;12.77;;;7.47;;
15412;SDS011;7805;49.554;7.632;2024-03-06T05:52:35;15.27;;;7.63;;
15412;SDS011;7805;49.554;7.632;2024-03-06T05:55:01;15.23;;;7.30;;
15412;SDS011;7805;49.554;7.632;2024-03-06T05:57:27;9.57;;;7.60;;
15412;SDS011;7805;49.554;7.632;2024-03-06T05:59:53;9.77;;;7.20;;
15412;SDS011;7805;49.554;7.632;2024-03-06T06:02:18;11.13;;;7.30;;
15412;SDS011;7805;49.554;7.632;2024-03-06T06:04:45;10.77;;;7.47;;
15412;SDS011;7805;49.554;7.632;2024-03-06T06:07:11;9.50;;;7.60;;
15412;SDS011;7805;49.554;7.632;2024-03-06T06:09:36;11.60;;;8.57;;
15412;SDS011;7805;49.554;7.632;2024-03-06T06:12:02;8.70;;;7.37;;
15412;SDS011;7805;49.554;7.632;2024-03-06T06:14:28;10.57;;;8.20;;
15412;SDS011;7805;49.554;7.632;2024-03-06T06:16:54;11.27;;;8.50;;
15412;SDS011;7805;49.554;7.632;2024-03-06T06:19:21;9.77;;;7.97;;
15412;SDS011;7805;49.554;7.632;2024-03-06T06:21:46;11.03;;;8.03;;
15412;SDS011;7805;49.554;7.632;2024-03-06T06:24:12;12.80;;;8.77;;
15412;SDS011;7805;49.554;7.632;2024-03-06T06:26:38;11.13;;;8.17;;
15412;SDS011;7805;49.554;7.632;2024-03-06T06:29:04;9.83;;;7.90;;
15412;SDS011;7805;49.554;7.632;2024-03-06T06:31:30;11.63;;;9.40;;
15412;SDS011;7805;49.554;7.632;2024-03-06T06:33:55;11.83;;;9.27;;
15412;SDS011;7805;49.554;7.632;2024-03-06T06:36:21;13.90;;;9.97;;
15412;SDS011;7805;49.554;7.632;2024-03-06T06:38:47;18.60;;;14.77;;
15412;SDS011;7805;49.554;7.632;2024-03-06T06:41:13;10.97;;;9.57;;
15412;SDS011;7805;49.554;7.632;2024-03-06T06:43:39;12.10;;;8.87;;
15412;SDS011;7805;49.554;7.632;2024-03-06T06:46:06;11.07;;;8.23;;
15412;SDS011;7805;49.554;7.632;2024-03-06T06:48:32;11.20;;;9.60;;
15412;SDS011;7805;49.554;7.632;2024-03-06T06:50:59;12.97;;;9.93;;
15412;SDS011;7805;49.554;7.632;2024-03-06T06:53:27;11.90;;;9.50;;
15412;SDS011;7805;49.554;7.632;2024-03-06T06:55:53;10.73;;;8.53;;
15412;SDS011;7805;49.554;7.632;2024-03-06T06:58:18;11.57;;;8.13;;
15412;SDS011;7805;49.554;7.632;2024-03-06T07:00:45;9.57;;;7.87;;
15412;SDS011;7805;49.554;7.632;2024-03-06T07:03:10;10.37;;;8.53;;
15412;SDS011;7805;49.554;7.632;2024-03-06T07:05:36;9.07;;;7.90;;
15412;SDS011;7805;49.554;7.632;2024-03-06T07:08:02;10.60;;;7.40;;
15412;SDS011;7805;49.554;7.632;2024-03-06T07:10:27;11.53;;;9.47;;
15412;SDS011;7805;49.554;7.632;2024-03-06T07:12:53;16.67;;;12.27;;
15412;SDS011;7805;49.554;7.632;2024-03-06T07:15:19;14.73;;;10.47;;
15412;SDS011;7805;49.554;7.632;2024-03-06T07:17:44;11.80;;;9.50;;
15412;SDS011;7805;49.554;7.632;2024-03-06T07:20:10;11.73;;;8.87;;
15412;SDS011;7805;49.554;7.632;2024-03-06T07:22:36;10.10;;;7.77;;
15412;SDS011;7805;49.554;7.632;2024-03-06T07:25:02;12.03;;;8.87;;
15412;SDS011;7805;49.554;7.632;2024-03-06T07:27:28;12.77;;;9.53;;
15412;SDS011;7805;49.554;7.632;2024-03-06T07:29:53;10.57;;;8.97;;
15412;SDS011;7805;49.554;7.632;2024-03-06T07:32:19;12.47;;;9.83;;
15412;SDS011;7805;49.554;7.632;2024-03-06T07:34:45;13.00;;;9.47;;
15412;SDS011;7805;49.554;7.632;2024-03-06T07:37:10;12.77;;;10.57;;
15412;SDS011;7805;49.554;7.632;2024-03-06T07:39:36;15.37;;;10.80;;
15412;SDS011;7805;49.554;7.632;2024-03-06T07:42:02;57.03;;;23.47;;
15412;SDS011;7805;49.554;7.632;2024-03-06T07:44:28;23.60;;;14.57;;
15412;SDS011;7805;49.554;7.632;2024-03-06T07:46:53;20.90;;;11.13;;
15412;SDS011;7805;49.554;7.632;2024-03-06T07:49:19;21.83;;;11.83;;
15412;SDS011;7805;49.554;7.632;2024-03-06T07:51:46;33.40;;;16.97;;
15412;SDS011;7805;49.554;7.632;2024-03-06T07:54:12;28.30;;;19.67;;
15412;SDS011;7805;49.554;7.632;2024-03-06T07:56:38;25.97;;;16.70;;
15412;SDS011;7805;49.554;7.632;2024-03-06T07:59:04;18.53;;;14.97;;
15412;SDS011;7805;49.554;7.632;2024-03-06T08:01:32;32.70;;;17.30;;
15412;SDS011;7805;49.554;7.632;2024-03-06T08:03:58;15.07;;;12.23;;
15412;SDS011;7805;49.554;7.632;2024-03-06T08:06:23;15.37;;;9.67;;
15412;SDS011;7805;49.554;7.632;2024-03-06T08:08:50;11.03;;;9.17;;
15412;SDS011;7805;49.554;7.632;2024-03-06T08:11:16;11.97;;;8.70;;
15412;SDS011;7805;49.554;7.632;2024-03-06T08:13:42;9.80;;;8.40;;
15412;SDS011;7805;49.554;7.632;2024-03-06T08:16:08;9.50;;;7.80;;
15412;SDS011;7805;49.554;7.632;2024-03-06T08:18:34;9.20;;;7.50;;
15412;SDS011;7805;49.554;7.632;2024-03-06T08:21:01;11.23;;;8.50;;
15412;SDS011;7805;49.554;7.632;2024-03-06T08:23:29;10.33;;;8.77;;
15412;SDS011;7805;49.554;7.632;2024-03-06T08:25:55;12.87;;;9.20;;
15412;SDS011;7805;49.554;7.632;2024-03-06T08:28:21;9.80;;;8.27;;
15412;SDS011;7805;49.554;7.632;2024-03-06T08:30:46;7.80;;;7.00;;
15412;SDS011;7805;49.554;7.632;2024-03-06T08:33:12;9.60;;;7.23;;
15412;SDS011;7805;49.554;7.632;2024-03-06T08:35:38;9.23;;;8.23;;
15412;SDS011;7805;49.554;7.632;2024-03-06T08:38:04;10.10;;;8.17;;
15412;SDS011;7805;49.554;7.632;2024-03-06T08:40:31;7.93;;;7.13;;
15412;SDS011;7805;49.554;7.632;2024-03-06T08:42:57;7.77;;;6.70;;
15412;SDS011;7805;49.554;7.632;2024-03-06T08:45:22;8.87;;;7.20;;
15412;SDS011;7805;49.554;7.632;2024-03-06T08:47:51;9.97;;;8.17;;
15412;SDS011;7805;49.554;7.632;2024-03-06T08:50:19;10.27;;;9.17;;
15412;SDS011;7805;49.554;7.632;2024-03-06T08:52:45;12.97;;;10.60;;
15412;SDS011;7805;49.554;7.632;2024-03-06T08:55:11;10.07;;;8.93;;
15412;SDS011;7805;49.554;7.632;2024-03-06T08:57:37;14.40;;;12.07;;
15412;SDS011;7805;49.554;7.632;2024-03-06T09:00:04;10.47;;;9.13;;
15412;SDS011;7805;49.554;7.632;2024-03-06T09:02:35;12.43;;;10.27;;
15412;SDS011;7805;49.554;7.632;2024-03-06T09:05:03;10.57;;;8.80;;
15412;SDS011;7805;49.554;7.632;2024-03-06T09:07:33;11.00;;;9.90;;
15412;SDS011;7805;49.554;7.632;2024-03-06T09:10:03;10.90;;;9.77;;
15412;SDS011;7805;49.554;7.632;2024-03-06T09:12:30;9.63;;;8.63;;
15412;SDS011;7805;49.554;7.632;2024-03-06T09:14:56;7.83;;;7.03;;
15412;SDS011;7805;49.554;7.632;2024-03-06T09:17:21;6.77;;;6.17;;
15412;SDS011;7805;49.554;7.632;2024-03-06T09:19:47;6.67;;;6.07;;
15412;SDS011;7805;49.554;7.632;2024-03-06T09:22:12;7.33;;;6.57;;
15412;SDS011;7805;49.554;7.632;2024-03-06T09:24:38;8.17;;;7.33;;
15412;SDS011;7805;49.554;7.632;2024-03-06T09:27:04;12.40;;;9.67;;
15412;SDS011;7805;49.554;7.632;2024-03-06T09:29:30;22.10;;;17.87;;
15412;SDS011;7805;49.554;7.632;2024-03-06T09:31:55;9.50;;;8.37;;
15412;SDS011;7805;49.554;7.632;2024-03-06T09:34:21;17.70;;;15.80;;
15412;SDS011;7805;49.554;7.632;2024-03-06T09:36:47;10.03;;;9.03;;
15412;SDS011;7805;49.554;7.632;2024-03-06T09:39:14;17.43;;;15.50;;
15412;SDS011;7805;49.554;7.632;2024-03-06T09:41:48;16.60;;;14.63;;
15412;SDS011;7805;49.554;7.632;2024-03-06T09:44:18;24.07;;;18.17;;
15412;SDS011;7805;49.554;7.632;2024-03-06T09:46:47;12.90;;;11.40;;
15412;SDS011;7805;49.554;7.632;2024-03-06T09:49:14;10.60;;;9.60;;
15412;SDS011;7805;49.554;7.632;2024-03-06T09:51:45;10.73;;;9.63;;
15412;SDS011;7805;49.554;7.632;2024-03-06T09:54:12;10.63;;;9.53;;
15412;SDS011;7805;49.554;7.632;2024-03-06T09:56:40;9.57;;;8.63;;
15412;SDS011;7805;49.554;7.632;2024-03-06T09:59:07;11.40;;;10.30;;
15412;SDS011;7805;49.554;7.632;2024-03-06T10:01:32;9.43;;;8.43;;
15412;SDS011;7805;49.554;7.632;2024-03-06T10:04:00;10.00;;;8.97;;
15412;SDS011;7805;49.554;7.632;2024-03-06T10:06:43;11.10;;;10.00;;
15412;SDS011;7805;49.554;7.632;2024-03-06T10:09:11;10.10;;;9.13;;
15412;SDS011;7805;49.554;7.632;2024-03-06T10:11:39;10.37;;;9.27;;
15412;SDS011;7805;49.554;7.632;2024-03-06T10:14:07;9.57;;;8.67;;
15412;SDS011;7805;49.554;7.632;2024-03-06T10:16:35;8.47;;;7.57;;
15412;SDS011;7805;49.554;7.632;2024-03-06T10:19:19;10.37;;;8.10;;
15412;SDS011;7805;49.554;7.632;2024-03-06T10:21:47;8.77;;;7.27;;
15412;SDS011;7805;49.554;7.632;2024-03-06T10:24:20;8.30;;;7.60;;
15412;SDS011;7805;49.554;7.632;2024-03-06T10:26:48;10.13;;;8.80;;
15412;SDS011;7805;49.554;7.632;2024-03-06T10:29:15;7.67;;;6.87;;
15412;SDS011;7805;49.554;7.632;2024-03-06T10:32:02;6.80;;;6.20;;
15412;SDS011;7805;49.554;7.632;2024-03-06T10:34:28;5.83;;;4.70;;
15412;SDS011;7805;49.554;7.632;2024-03-06T10:36:58;4.77;;;4.37;;
15412;SDS011;7805;49.554;7.632;2024-03-06T10:39:26;3.90;;;3.60;;
15412;SDS011;7805;49.554;7.632;2024-03-06T10:41:55;4.97;;;3.70;;
15412;SDS011;7805;49.554;7.632;2024-03-06T10:44:22;3.73;;;2.63;;
15412;SDS011;7805;49.554;7.632;2024-03-06T10:47:00;2.77;;;2.40;;
15412;SDS011;7805;49.554;7.632;2024-03-06T10:49:27;1.70;;;1.60;;
15412;SDS011;7805;49.554;7.632;2024-03-06T10:51:59;2.20;;;2.00;;
15412;SDS011;7805;49.554;7.632;2024-03-06T10:54:29;1.90;;;1.80;;
15412;SDS011;7805;49.554;7.632;2024-03-06T10:56:55;3.70;;;1.30;;
15412;SDS011;7805;49.554;7.632;2024-03-06T10:59:22;1.80;;;1.70;;
15412;SDS011;7805;49.554;7.632;2024-03-06T11:01:52;2.07;;;1.60;;
15412;SDS011;7805;49.554;7.632;2024-03-06T11:04:20;2.13;;;1.50;;
15412;SDS011;7805;49.554;7.632;2024-03-06T11:06:48;1.43;;;1.33;;
15412;SDS011;7805;49.554;7.632;2024-03-06T11:09:14;2.03;;;1.83;;
15412;SDS011;7805;49.554;7.632;2024-03-06T11:11:50;2.43;;;1.60;;
15412;SDS011;7805;49.554;7.632;2024-03-06T11:14:17;2.43;;;1.90;;
15412;SDS011;7805;49.554;7.632;2024-03-06T11:19:28;2.53;;;1.43;;
15412;SDS011;7805;49.554;7.632;2024-03-06T11:21:57;1.83;;;1.40;;
15412;SDS011;7805;49.554;7.632;2024-03-06T11:24:23;2.37;;;1.50;;
15412;SDS011;7805;49.554;7.632;2024-03-06T11:29:26;2.30;;;1.40;;
15412;SDS011;7805;49.554;7.632;2024-03-06T11:31:59;1.97;;;1.20;;
15412;SDS011;7805;49.554;7.632;2024-03-06T11:34:27;2.70;;;1.50;;
15412;SDS011;7805;49.554;7.632;2024-03-06T11:36:58;4.80;;;1.90;;
15412;SDS011;7805;49.554;7.632;2024-03-06T11:39:28;1.47;;;1.13;;
15412;SDS011;7805;49.554;7.632;2024-03-06T11:41:59;2.90;;;1.40;;
15412;SDS011;7805;49.554;7.632;2024-03-06T11:44:24;1.70;;;1.17;;
15412;SDS011;7805;49.554;7.632;2024-03-06T11:47:03;2.60;;;1.00;;
15412;SDS011;7805;49.554;7.632;2024-03-06T11:49:32;1.63;;;1.10;;
15412;SDS011;7805;49.554;7.632;2024-03-06T11:52:00;1.47;;;1.20;;
15412;SDS011;7805;49.554;7.632;2024-03-06T11:54:28;2.13;;;0.97;;
15412;SDS011;7805;49.554;7.632;2024-03-06T11:56:58;1.53;;;0.80;;
15412;SDS011;7805;49.554;7.632;2024-03-06T11:59:25;1.77;;;1.00;;
15412;SDS011;7805;49.554;7.632;2024-03-06T12:02:01;1.17;;;1.00;;
15412;SDS011;7805;49.554;7.632;2024-03-06T12:04:29;2.57;;;1.50;;
15412;SDS011;7805;49.554;7.632;2024-03-06T12:06:58;1.43;;;1.30;;
15412;SDS011;7805;49.554;7.632;2024-03-06T12:09:30;1.27;;;0.90;;
15412;SDS011;7805;49.554;7.632;2024-03-06T12:12:00;1.23;;;1.13;;
15412;SDS011;7805;49.554;7.632;2024-03-06T12:14:25;1.87;;;1.30;;
15412;SDS011;7805;49.554;7.632;2024-03-06T12:17:41;1.67;;;0.80;;
15412;SDS011;7805;49.554;7.632;2024-03-06T12:19:41;0.97;;;0.80;;
15412;SDS011;7805;49.554;7.632;2024-03-06T12:22:10;1.40;;;0.80;;
15412;SDS011;7805;49.554;7.632;2024-03-06T12:24:36;1.27;;;0.90;;
15412;SDS011;7805;49.554;7.632;2024-03-06T12:27:02;1.90;;;1.27;;
15412;SDS011;7805;49.554;7.632;2024-03-06T12:29:30;1.70;;;1.30;;
15412;SDS011;7805;49.554;7.632;2024-03-06T12:32:00;1.90;;;1.27;;
15412;SDS011;7805;49.554;7.632;2024-03-06T12:34:26;1.80;;;1.23;;
15412;SDS011;7805;49.554;7.632;2024-03-06T12:36:52;2.37;;;1.07;;
15412;SDS011;7805;49.554;7.632;2024-03-06T12:39:18;1.80;;;0.90;;
15412;SDS011;7805;49.554;7.632;2024-03-06T12:41:48;0.60;;;0.60;;
15412;SDS011;7805;49.554;7.632;2024-03-06T12:44:14;3.93;;;3.30;;
15412;SDS011;7805;49.554;7.632;2024-03-06T12:46:40;2.47;;;1.30;;
15412;SDS011;7805;49.554;7.632;2024-03-06T12:49:06;1.33;;;0.90;;
15412;SDS011;7805;49.554;7.632;2024-03-06T12:51:31;1.57;;;1.10;;
15412;SDS011;7805;49.554;7.632;2024-03-06T12:53:57;0.80;;;0.80;;
15412;SDS011;7805;49.554;7.632;2024-03-06T12:56:23;1.60;;;0.80;;
15412;SDS011;7805;49.554;7.632;2024-03-06T12:58:50;0.87;;;0.70;;
15412;SDS011;7805;49.554;7.632;2024-03-06T13:01:16;1.03;;;0.60;;
15412;SDS011;7805;49.554;7.632;2024-03-06T13:03:41;1.67;;;0.90;;
15412;SDS011;7805;49.554;7.632;2024-03-06T13:06:07;0.97;;;0.80;;
15412;SDS011;7805;49.554;7.632;2024-03-06T13:08:33;1.90;;;1.07;;
15412;SDS011;7805;49.554;7.632;2024-03-06T13:10:58;1.07;;;0.93;;
15412;SDS011;7805;49.554;7.632;2024-03-06T13:13:24;0.90;;;0.90;;
15412;SDS011;7805;49.554;7.632;2024-03-06T13:15:53;1.73;;;1.63;;
15412;SDS011;7805;49.554;7.632;2024-03-06T13:18:19;2.43;;;1.53;;
15412;SDS011;7805;49.554;7.632;2024-03-06T13:20:44;2.37;;;1.17;;
15412;SDS011;7805;49.554;7.632;2024-03-06T13:23:10;5.13;;;2.67;;
15412;SDS011;7805;49.554;7.632;2024-03-06T13:25:36;1.13;;;0.93;;
15412;SDS011;7805;49.554;7.632;2024-03-06T13:28:02;1.97;;;1.00;;
15412;SDS011;7805;49.554;7.632;2024-03-06T13:30:28;0.83;;;0.70;;
15412;SDS011;7805;49.554;7.632;2024-03-06T13:32:54;1.00;;;0.90;;
15412;SDS011;7805;49.554;7.632;2024-03-06T13:35:20;2.90;;;2.37;;
15412;SDS011;7805;49.554;7.632;2024-03-06T13:37:45;2.70;;;2.37;;
15412;SDS011;7805;49.554;7.632;2024-03-06T13:40:12;1.40;;;1.30;;
15412;SDS011;7805;49.554;7.632;2024-03-06T13:42:38;3.07;;;1.10;;
15412;SDS011;7805;49.554;7.632;2024-03-06T13:45:05;1.07;;;0.70;;
15412;SDS011;7805;49.554;7.632;2024-03-06T13:47:37;3.87;;;1.00;;
15412;SDS011;7805;49.554;7.632;2024-03-06T13:50:05;1.00;;;1.00;;
15412;SDS011;7805;49.554;7.632;2024-03-06T13:52:33;0.80;;;0.80;;
15412;SDS011;7805;49.554;7.632;2024-03-06T13:54:59;1.17;;;0.80;;
15412;SDS011;7805;49.554;7.632;2024-03-06T13:57:27;0.70;;;0.60;;
15412;SDS011;7805;49.554;7.632;2024-03-06T13:59:53;0.87;;;0.87;;
15412;SDS011;7805;49.554;7.632;2024-03-06T14:02:19;0.83;;;0.83;;
15412;SDS011;7805;49.554;7.632;2024-03-06T14:04:44;1.17;;;1.07;;
15412;SDS011;7805;49.554;7.632;2024-03-06T14:07:10;1.70;;;0.80;;
15412;SDS011;7805;49.554;7.632;2024-03-06T14:09:36;1.30;;;0.90;;
15412;SDS011;7805;49.554;7.632;2024-03-06T14:12:02;1.07;;;0.97;;
15412;SDS011;7805;49.554;7.632;2024-03-06T14:14:28;1.23;;;1.13;;
15412;SDS011;7805;49.554;7.632;2024-03-06T14:16:53;1.37;;;1.13;;
15412;SDS011;7805;49.554;7.632;2024-03-06T14:19:20;2.13;;;1.13;;
15412;SDS011;7805;49.554;7.632;2024-03-06T14:21:47;2.70;;;2.00;;
15412;SDS011;7805;49.554;7.632;2024-03-06T14:24:12;3.23;;;2.93;;
15412;SDS011;7805;49.554;7.632;2024-03-06T14:26:38;3.10;;;1.70;;
15412;SDS011;7805;49.554;7.632;2024-03-06T14:29:03;4.13;;;2.10;;
15412;SDS011;7805;49.554;7.632;2024-03-06T14:31:32;1.47;;;1.37;;
15412;SDS011;7805;49.554;7.632;2024-03-06T14:33:58;2.30;;;0.90;;
15412;SDS011;7805;49.554;7.632;2024-03-06T14:36:23;1.17;;;1.00;;
15412;SDS011;7805;49.554;7.632;2024-03-06T14:38:52;1.10;;;1.00;;
15412;SDS011;7805;49.554;7.632;2024-03-06T14:41:18;1.30;;;1.10;;
15412;SDS011;7805;49.554;7.632;2024-03-06T14:43:44;4.27;;;3.40;;
15412;SDS011;7805;49.554;7.632;2024-03-06T14:46:10;2.10;;;1.63;;
15412;SDS011;7805;49.554;7.632;2024-03-06T14:48:37;1.13;;;0.83;;
15412;SDS011;7805;49.554;7.632;2024-03-06T14:51:03;1.37;;;1.03;;
15412;SDS011;7805;49.554;7.632;2024-03-06T14:53:28;1.43;;;0.80;;
15412;SDS011;7805;49.554;7.632;2024-03-06T14:55:55;2.43;;;1.10;;